Time;durP1;ratioP1;P1;durP2;ratioP2;P2;SDS_P1;SDS_P2;PMS_P1;PMS_P2;Temp;Humidity;BMP_temperature;BMP_pressure;BME280_temperature;BME280_humidity;BME280_pressure;Samples;Min_cycle;Max_cycle;Signal;HPM_P1;HPM_P2
2021/05/16 00:00:18;;;;;;;6.07;5.25;;;11.10;94.90;;;;;;5060166;28;20028;-72
2021/05/16 00:02:44;;;;;;;5.78;5.05;;;11.00;94.80;;;;;;5057717;28;20029;-72
2021/05/16 00:05:11;;;;;;;7.30;6.10;;;11.00;94.90;;;;;;5058724;28;20033;-72
2021/05/16 00:07:37;;;;;;;6.43;5.43;;;11.00;94.80;;;;;;5052558;28;21409;-72
2021/05/16 00:10:05;;;;;;;5.85;5.13;;;11.00;94.70;;;;;;5060429;28;20153;-70
2021/05/16 00:12:31;;;;;;;5.80;5.03;;;11.00;94.80;;;;;;5062478;28;20048;-72
2021/05/16 00:14:57;;;;;;;7.95;6.13;;;11.00;94.90;;;;;;5060473;28;20551;-72
2021/05/16 00:17:23;;;;;;;7.03;5.70;;;10.90;94.80;;;;;;5054094;28;20032;-72
2021/05/16 00:19:48;;;;;;;6.20;5.35;;;10.90;94.80;;;;;;5061277;28;20399;-72
2021/05/16 00:22:14;;;;;;;6.30;4.60;;;10.90;94.90;;;;;;5063073;28;20033;-72
2021/05/16 00:24:40;;;;;;;5.80;4.30;;;10.90;95.00;;;;;;5056269;28;20048;-72
2021/05/16 00:27:06;;;;;;;6.30;5.00;;;10.90;94.90;;;;;;5058724;28;20056;-73
2021/05/16 00:29:31;;;;;;;5.32;4.65;;;10.90;95.20;;;;;;5060290;28;20087;-72
2021/05/16 00:31:57;;;;;;;5.20;4.70;;;10.90;94.90;;;;;;5041203;28;20387;-72
2021/05/16 00:34:23;;;;;;;4.90;3.95;;;10.90;94.90;;;;;;5057798;28;20454;-73
2021/05/16 00:36:49;;;;;;;5.80;4.97;;;10.90;94.90;;;;;;5060456;28;20028;-72
2021/05/16 00:39:15;;;;;;;5.57;4.60;;;10.90;94.90;;;;;;5051835;28;20525;-73
2021/05/16 00:41:40;;;;;;;6.35;4.38;;;10.90;94.80;;;;;;5057949;28;20438;-72
2021/05/16 00:44:06;;;;;;;5.93;4.32;;;10.90;94.80;;;;;;5058680;28;20040;-73
2021/05/16 00:46:32;;;;;;;5.72;4.10;;;10.90;94.70;;;;;;5060485;28;20035;-73
2021/05/16 00:48:58;;;;;;;4.60;4.20;;;10.90;94.80;;;;;;5062474;28;20032;-73
2021/05/16 00:51:24;;;;;;;5.05;3.90;;;10.90;94.80;;;;;;5059766;28;20379;-73
2021/05/16 00:53:49;;;;;;;7.57;3.95;;;11.00;94.70;;;;;;5058324;28;20032;-72
2021/05/16 00:56:16;;;;;;;4.78;3.90;;;10.90;94.80;;;;;;5054480;28;20056;-71
2021/05/16 00:58:41;;;;;;;5.97;4.10;;;10.90;94.60;;;;;;5054175;28;20032;-71
2021/05/16 01:01:09;;;;;;;5.15;3.90;;;10.90;94.50;;;;;;5056910;28;20021;-71
2021/05/16 01:03:36;;;;;;;6.40;4.05;;;10.90;94.50;;;;;;5062080;28;20040;-71
2021/05/16 01:06:02;;;;;;;4.45;3.72;;;10.90;94.60;;;;;;5064284;28;20048;-71
2021/05/16 01:08:28;;;;;;;5.95;4.40;;;10.90;94.60;;;;;;5060406;28;20495;-71
2021/05/16 01:10:53;;;;;;;4.90;4.40;;;10.90;94.50;;;;;;5065295;28;20106;-72
2021/05/16 01:13:19;;;;;;;5.68;3.85;;;10.90;94.60;;;;;;5052952;28;20028;-71
2021/05/16 01:15:46;;;;;;;5.55;4.45;;;10.90;94.50;;;;;;5063216;28;20025;-72
2021/05/16 01:18:13;;;;;;;5.45;4.65;;;10.90;94.40;;;;;;5059773;28;20032;-71
2021/05/16 01:20:43;;;;;;;6.50;4.43;;;10.90;94.30;;;;;;5062659;28;20029;-72
2021/05/16 01:23:14;;;;;;;5.20;4.60;;;10.90;94.30;;;;;;5061850;28;20021;-72
2021/05/16 01:25:45;;;;;;;5.97;4.28;;;10.90;94.10;;;;;;5062991;28;20503;-71
2021/05/16 01:28:13;;;;;;;5.05;3.50;;;10.80;94.30;;;;;;5061487;28;20037;-72
2021/05/16 01:30:41;;;;;;;5.40;4.28;;;10.90;94.50;;;;;;5059204;28;20033;-71
2021/05/16 01:33:08;;;;;;;4.97;3.83;;;10.90;94.50;;;;;;5059919;28;20021;-72
2021/05/16 01:35:34;;;;;;;5.63;4.55;;;10.90;94.50;;;;;;5062937;28;20529;-72
2021/05/16 01:38:00;;;;;;;5.25;4.00;;;10.90;94.40;;;;;;5044390;28;20111;-71
2021/05/16 01:40:27;;;;;;;4.18;3.67;;;10.90;94.50;;;;;;5063273;28;20071;-72
2021/05/16 01:42:54;;;;;;;4.55;3.92;;;10.90;94.50;;;;;;5062625;28;20128;-71
2021/05/16 01:45:25;;;;;;;4.70;3.90;;;10.90;94.50;;;;;;5064622;28;20040;-71
2021/05/16 01:47:56;;;;;;;4.97;4.18;;;10.90;94.60;;;;;;5060949;28;20028;-72
2021/05/16 01:50:27;;;;;;;4.85;4.13;;;10.90;94.40;;;;;;5062501;28;20039;-71
2021/05/16 01:52:52;;;;;;;7.03;4.45;;;10.90;94.40;;;;;;5061154;28;20020;-73
2021/05/16 01:55:19;;;;;;;5.80;4.22;;;10.90;94.30;;;;;;5060177;28;20083;-73
2021/05/16 01:57:47;;;;;;;6.68;4.25;;;10.80;94.20;;;;;;5061516;28;20035;-72
2021/05/16 02:00:31;;;;;;;4.82;4.10;;;10.80;94.20;;;;;;5061453;28;20052;-72
2021/05/16 02:02:57;;;;;;;6.78;4.65;;;10.80;94.20;;;;;;5061576;28;20032;-73
2021/05/16 02:05:24;;;;;;;5.38;4.20;;;10.80;94.10;;;;;;5059232;28;20025;-73
2021/05/16 02:07:50;;;;;;;5.90;4.45;;;10.90;94.20;;;;;;5060248;28;20203;-73
2021/05/16 02:10:18;;;;;;;5.93;4.70;;;10.90;94.20;;;;;;5062061;28;20036;-73
2021/05/16 02:12:44;;;;;;;6.82;4.65;;;10.80;94.10;;;;;;5060073;28;20466;-73
2021/05/16 02:15:11;;;;;;;6.57;5.10;;;10.90;94.10;;;;;;5064539;28;20037;-73
2021/05/16 02:17:42;;;;;;;5.88;4.75;;;10.80;93.80;;;;;;5061006;28;20083;-72
2021/05/16 02:20:13;;;;;;;6.07;4.32;;;10.80;93.90;;;;;;5058838;28;20020;-73
2021/05/16 02:22:39;;;;;;;5.65;4.55;;;10.80;94.10;;;;;;5061556;28;20040;-73
2021/05/16 02:25:06;;;;;;;4.88;4.30;;;10.80;94.20;;;;;;5057496;28;20033;-73
2021/05/16 02:27:33;;;;;;;8.88;4.72;;;10.80;94.10;;;;;;5062780;28;20025;-72
2021/05/16 02:29:59;;;;;;;6.15;4.50;;;10.80;94.20;;;;;;5058815;28;20066;-73
2021/05/16 02:32:25;;;;;;;6.75;4.30;;;10.80;94.20;;;;;;5060499;28;20124;-73
2021/05/16 02:34:51;;;;;;;5.30;4.38;;;10.80;94.20;;;;;;5060836;28;20048;-73
2021/05/16 02:37:17;;;;;;;5.97;3.90;;;10.80;94.30;;;;;;5070161;28;20040;-72
2021/05/16 02:39:42;;;;;;;6.88;4.35;;;10.80;94.30;;;;;;5060495;28;20392;-73
2021/05/16 02:42:09;;;;;;;5.50;4.40;;;10.80;94.30;;;;;;5059228;28;20021;-73
2021/05/16 02:44:35;;;;;;;6.50;4.13;;;10.80;94.30;;;;;;5044357;28;20033;-73
2021/05/16 02:47:02;;;;;;;4.13;3.72;;;10.70;94.20;;;;;;5058102;28;20040;-72
2021/05/16 02:49:29;;;;;;;6.20;4.80;;;10.70;94.10;;;;;;5061754;28;20371;-73
2021/05/16 02:51:58;;;;;;;5.00;4.00;;;10.70;94.20;;;;;;5063359;28;20056;-73
2021/05/16 02:54:24;;;;;;;5.13;4.43;;;10.70;94.20;;;;;;5055636;28;20100;-72
2021/05/16 02:56:49;;;;;;;5.10;4.25;;;10.70;94.30;;;;;;5062900;28;20094;-73
2021/05/16 02:59:15;;;;;;;4.85;3.95;;;10.70;94.40;;;;;;5059980;28;20025;-72
2021/05/16 03:01:42;;;;;;;4.80;3.90;;;10.70;94.40;;;;;;5062038;28;20040;-72
2021/05/16 03:04:07;;;;;;;6.13;4.30;;;10.70;94.30;;;;;;5060007;28;20596;-72
2021/05/16 03:06:33;;;;;;;4.38;3.85;;;10.70;94.40;;;;;;5054413;28;20036;-73
2021/05/16 03:08:59;;;;;;;6.50;4.25;;;10.70;94.20;;;;;;5063023;28;20088;-72
2021/05/16 03:11:24;;;;;;;6.30;4.20;;;10.60;94.10;;;;;;5060872;28;20021;-73
2021/05/16 03:13:50;;;;;;;5.53;3.97;;;10.60;94.30;;;;;;5058828;28;20764;-72
2021/05/16 03:16:16;;;;;;;5.22;4.05;;;10.60;94.30;;;;;;5057983;28;20416;-72
2021/05/16 03:18:41;;;;;;;4.57;4.10;;;10.60;94.30;;;;;;5060955;28;20099;-72
2021/05/16 03:21:07;;;;;;;5.13;4.30;;;10.60;94.40;;;;;;5064201;28;20111;-74
2021/05/16 03:23:33;;;;;;;4.85;3.80;;;10.60;94.40;;;;;;5056323;28;20079;-73
2021/05/16 03:26:01;;;;;;;6.85;4.15;;;10.60;94.40;;;;;;5061631;28;20029;-73
2021/05/16 03:28:28;;;;;;;5.07;3.80;;;10.60;94.50;;;;;;5060231;28;20081;-73
2021/05/16 03:30:54;;;;;;;6.40;3.60;;;10.60;94.50;;;;;;5057153;28;20033;-73
2021/05/16 03:33:20;;;;;;;4.53;3.88;;;10.60;94.40;;;;;;5052346;28;20090;-72
2021/05/16 03:35:46;;;;;;;3.97;3.45;;;10.60;94.40;;;;;;5061436;28;20036;-72
2021/05/16 03:38:11;;;;;;;4.32;3.33;;;10.50;94.50;;;;;;5055549;28;20032;-72
2021/05/16 03:40:37;;;;;;;4.63;4.00;;;10.50;94.50;;;;;;5061548;28;20029;-72
2021/05/16 03:43:03;;;;;;;4.35;3.90;;;10.50;94.60;;;;;;5061194;28;20109;-73
2021/05/16 03:45:29;;;;;;;4.00;3.60;;;10.50;94.60;;;;;;5059456;28;20394;-72
2021/05/16 03:47:54;;;;;;;5.55;3.90;;;10.60;94.60;;;;;;5060473;28;20060;-72
2021/05/16 03:50:20;;;;;;;7.13;4.50;;;10.60;94.60;;;;;;5060921;28;20033;-72
2021/05/16 03:52:46;;;;;;;4.40;3.97;;;10.60;94.60;;;;;;5058584;28;20043;-72
2021/05/16 03:55:12;;;;;;;5.57;4.22;;;10.60;94.60;;;;;;5052867;28;20029;-72
2021/05/16 03:57:39;;;;;;;5.13;4.20;;;10.60;94.70;;;;;;5062092;28;20511;-72
2021/05/16 04:00:06;;;;;;;4.93;3.95;;;10.60;94.70;;;;;;5053279;28;20033;-72
2021/05/16 04:02:32;;;;;;;6.07;4.55;;;10.60;94.60;;;;;;5034506;28;20410;-72
2021/05/16 04:04:58;;;;;;;5.35;4.28;;;10.60;94.60;;;;;;5060425;28;20044;-73
2021/05/16 04:07:24;;;;;;;7.15;4.43;;;10.60;94.50;;;;;;5057443;28;20487;-72
2021/05/16 04:09:50;;;;;;;6.35;4.57;;;10.60;94.50;;;;;;5063301;28;20490;-72
2021/05/16 04:12:16;;;;;;;5.45;4.43;;;10.60;94.50;;;;;;5061191;28;20029;-72
2021/05/16 04:14:44;;;;;;;5.75;4.10;;;10.70;94.60;;;;;;5053392;28;20368;-72
2021/05/16 04:17:10;;;;;;;5.80;4.43;;;10.70;94.60;;;;;;5058431;28;20156;-72
2021/05/16 04:19:36;;;;;;;5.53;4.65;;;10.60;94.50;;;;;;5058997;28;20120;-71
2021/05/16 04:22:02;;;;;;;6.00;4.82;;;10.60;94.40;;;;;;5059377;28;20082;-71
2021/05/16 04:24:27;;;;;;;6.60;5.55;;;10.70;94.50;;;;;;5060242;28;20029;-71
2021/05/16 04:26:53;;;;;;;4.65;4.03;;;10.70;94.40;;;;;;5062430;28;20033;-73
2021/05/16 04:29:19;;;;;;;5.38;4.15;;;10.70;94.50;;;;;;5060997;28;20028;-72
2021/05/16 04:31:44;;;;;;;4.70;3.58;;;10.70;94.40;;;;;;5059552;28;20021;-73
2021/05/16 04:34:10;;;;;;;7.82;4.10;;;10.70;94.50;;;;;;5062325;28;20012;-72
2021/05/16 04:36:36;;;;;;;6.10;4.25;;;10.80;94.10;;;;;;5059682;28;20084;-72
2021/05/16 04:39:02;;;;;;;4.60;4.03;;;10.70;94.00;;;;;;5063987;28;20047;-73
2021/05/16 04:41:27;;;;;;;7.20;4.22;;;10.70;94.00;;;;;;5062926;28;20031;-73
2021/05/16 04:43:53;;;;;;;4.50;3.78;;;10.70;94.20;;;;;;5063654;28;20021;-73
2021/05/16 04:46:19;;;;;;;4.88;3.72;;;10.70;94.30;;;;;;5061848;28;20170;-72
2021/05/16 04:48:44;;;;;;;5.13;3.88;;;10.70;94.20;;;;;;5064393;28;20125;-72
2021/05/16 04:51:10;;;;;;;7.80;4.20;;;10.70;94.20;;;;;;5061912;28;20025;-72
2021/05/16 04:53:37;;;;;;;5.50;3.90;;;10.70;94.10;;;;;;5059704;28;20036;-73
2021/05/16 04:56:04;;;;;;;10.07;4.20;;;10.70;94.20;;;;;;5061151;28;20033;-72
2021/05/16 04:58:29;;;;;;;5.28;3.80;;;10.80;94.20;;;;;;5061905;28;20552;-72
2021/05/16 05:00:55;;;;;;;5.55;3.60;;;10.80;94.30;;;;;;5061341;28;20051;-72
2021/05/16 05:03:22;;;;;;;6.43;3.80;;;10.80;94.30;;;;;;5061402;28;20119;-73
2021/05/16 05:05:52;;;;;;;4.63;3.50;;;10.80;94.20;;;;;;5061080;28;20107;-72
2021/05/16 05:08:18;;;;;;;4.32;3.83;;;10.90;94.20;;;;;;5068757;28;20479;-72
2021/05/16 05:10:43;;;;;;;4.47;3.38;;;10.90;94.00;;;;;;5058947;28;20044;-72
2021/05/16 05:13:09;;;;;;;3.22;2.75;;;10.90;94.10;;;;;;5061309;28;20418;-72
2021/05/16 05:15:35;;;;;;;4.72;3.90;;;11.00;94.20;;;;;;5047113;28;20082;-72
2021/05/16 05:18:01;;;;;;;5.00;3.55;;;11.00;94.00;;;;;;5052702;28;20052;-72
2021/05/16 05:20:26;;;;;;;5.95;3.53;;;11.00;94.00;;;;;;5068318;28;20031;-73
2021/05/16 05:22:52;;;;;;;5.20;3.53;;;11.10;94.00;;;;;;5062448;28;20043;-73
2021/05/16 05:25:18;;;;;;;4.30;3.55;;;11.10;94.00;;;;;;5061066;28;20402;-72
2021/05/16 05:27:44;;;;;;;5.78;4.60;;;11.10;93.90;;;;;;5062252;28;20428;-71
2021/05/16 05:30:11;;;;;;;4.22;3.40;;;11.10;93.80;;;;;;5050346;28;20051;-72
2021/05/16 05:32:36;;;;;;;8.38;4.35;;;11.10;93.90;;;;;;5066386;28;20033;-72
2021/05/16 05:35:04;;;;;;;5.55;4.03;;;11.10;93.90;;;;;;5061025;28;20079;-72
2021/05/16 05:37:29;;;;;;;5.15;3.50;;;11.20;93.90;;;;;;5061732;28;20035;-72
2021/05/16 05:39:55;;;;;;;4.72;3.40;;;11.20;93.90;;;;;;5064606;28;20036;-71
2021/05/16 05:42:23;;;;;;;4.75;4.10;;;11.20;93.90;;;;;;5063988;28;20071;-73
2021/05/16 05:44:49;;;;;;;6.00;3.78;;;11.20;93.80;;;;;;5058292;28;20037;-72
2021/05/16 05:47:15;;;;;;;4.93;3.55;;;11.20;93.90;;;;;;5047132;28;20036;-73
2021/05/16 05:49:41;;;;;;;4.55;3.55;;;11.20;94.00;;;;;;5058310;28;20068;-73
2021/05/16 05:52:07;;;;;;;5.05;3.85;;;11.20;93.90;;;;;;5062093;28;20021;-73
2021/05/16 05:54:34;;;;;;;5.88;4.30;;;11.20;93.90;;;;;;5061062;28;20032;-72
2021/05/16 05:57:00;;;;;;;7.07;4.13;;;11.20;93.80;;;;;;5060098;28;20506;-72
2021/05/16 05:59:26;;;;;;;5.53;3.67;;;11.20;93.90;;;;;;5065426;28;20044;-73
2021/05/16 06:01:51;;;;;;;8.18;4.10;;;11.20;93.90;;;;;;5049991;28;20035;-72
2021/05/16 06:04:17;;;;;;;6.45;3.83;;;11.30;93.90;;;;;;5064327;28;20032;-72
2021/05/16 06:06:43;;;;;;;5.60;3.65;;;11.30;93.80;;;;;;5060409;28;20435;-72
2021/05/16 06:09:08;;;;;;;5.05;3.60;;;11.40;93.80;;;;;;5060351;28;20025;-71
2021/05/16 06:11:34;;;;;;;5.05;3.90;;;11.40;93.80;;;;;;5059944;28;20036;-73
2021/05/16 06:14:00;;;;;;;3.65;3.00;;;11.40;93.80;;;;;;5059769;28;20038;-72
2021/05/16 06:16:26;;;;;;;5.28;3.22;;;11.40;93.80;;;;;;5048767;28;20025;-73
2021/05/16 06:18:51;;;;;;;3.90;3.33;;;11.40;94.00;;;;;;5045845;28;20024;-72
2021/05/16 06:21:17;;;;;;;5.93;3.90;;;11.40;94.00;;;;;;5062529;28;20104;-72
2021/05/16 06:23:48;;;;;;;4.30;3.35;;;11.40;94.10;;;;;;5065115;28;20108;-72
2021/05/16 06:26:14;;;;;;;6.10;3.75;;;11.40;94.30;;;;;;5062525;28;20033;-72
2021/05/16 06:28:39;;;;;;;5.03;4.30;;;11.50;94.40;;;;;;5065111;28;20086;-73
2021/05/16 06:31:05;;;;;;;6.20;4.57;;;11.60;94.30;;;;;;5060261;28;20052;-73
2021/05/16 06:33:31;;;;;;;5.85;4.20;;;11.60;94.20;;;;;;5056001;28;20112;-72
2021/05/16 06:35:56;;;;;;;4.93;3.78;;;11.60;94.30;;;;;;5055416;28;20029;-72
2021/05/16 06:38:22;;;;;;;5.85;3.70;;;11.60;94.20;;;;;;5060091;28;20521;-72
2021/05/16 06:40:47;;;;;;;5.43;3.95;;;11.60;94.10;;;;;;5059627;28;20033;-72
2021/05/16 06:43:15;;;;;;;5.03;3.95;;;11.60;94.10;;;;;;5058952;28;20437;-72
2021/05/16 06:45:40;;;;;;;7.07;4.88;;;11.60;94.30;;;;;;5060545;28;20028;-72
2021/05/16 06:48:06;;;;;;;8.20;5.03;;;11.70;94.00;;;;;;5061665;28;20388;-72
2021/05/16 06:50:32;;;;;;;5.47;4.20;;;11.70;94.00;;;;;;5061166;28;20419;-72
2021/05/16 06:52:58;;;;;;;5.20;4.10;;;11.80;94.00;;;;;;5062339;28;20024;-71
2021/05/16 06:55:23;;;;;;;6.68;4.88;;;11.90;94.10;;;;;;5058356;28;20033;-72
2021/05/16 06:57:49;;;;;;;7.07;5.18;;;12.00;93.90;;;;;;5059212;28;20138;-72
2021/05/16 07:00:15;;;;;;;6.63;5.00;;;12.10;93.60;;;;;;5056306;28;20322;-72
2021/05/16 07:02:41;;;;;;;4.85;4.30;;;12.10;93.60;;;;;;5062041;28;20544;-72
2021/05/16 07:05:07;;;;;;;8.13;5.03;;;12.20;93.50;;;;;;5060524;28;20040;-72
2021/05/16 07:07:33;;;;;;;6.72;4.90;;;12.10;93.20;;;;;;5054387;28;20130;-73
2021/05/16 07:09:59;;;;;;;5.38;4.28;;;12.10;93.40;;;;;;5057764;28;20052;-75
2021/05/16 07:12:25;;;;;;;8.25;6.45;;;12.10;93.50;;;;;;5059307;28;20040;-75
2021/05/16 07:14:51;;;;;;;10.07;6.38;;;12.20;92.80;;;;;;5061492;28;20581;-75
2021/05/16 07:17:16;;;;;;;6.68;5.47;;;12.20;92.90;;;;;;5057555;28;20187;-75
2021/05/16 07:19:42;;;;;;;5.85;5.25;;;12.20;93.10;;;;;;5055785;28;20499;-75
2021/05/16 07:22:08;;;;;;;7.32;5.82;;;12.10;93.20;;;;;;5047453;28;20032;-73
2021/05/16 07:24:34;;;;;;;6.82;6.00;;;12.10;93.10;;;;;;5056397;28;20386;-75
2021/05/16 07:26:59;;;;;;;8.57;6.75;;;12.20;93.10;;;;;;5060061;28;20032;-76
2021/05/16 07:29:25;;;;;;;7.35;6.25;;;12.30;92.70;;;;;;5056770;28;20028;-75
2021/05/16 07:31:52;;;;;;;9.38;7.00;;;12.30;92.40;;;;;;5060643;28;20028;-73
2021/05/16 07:34:17;;;;;;;8.52;7.35;;;12.30;92.40;;;;;;5057562;28;20032;-75
2021/05/16 07:36:43;;;;;;;8.85;6.78;;;12.30;92.40;;;;;;5058912;28;20021;-75
2021/05/16 07:39:09;;;;;;;8.48;6.75;;;12.20;92.70;;;;;;5062181;28;20494;-75
2021/05/16 07:41:35;;;;;;;8.75;7.78;;;12.30;92.70;;;;;;5059786;28;20493;-75
2021/05/16 07:44:00;;;;;;;8.30;6.55;;;12.20;92.70;;;;;;5062987;28;20549;-75
2021/05/16 07:46:26;;;;;;;9.48;7.57;;;12.30;92.80;;;;;;5063414;28;20417;-76
2021/05/16 07:48:52;;;;;;;9.73;7.53;;;12.30;92.80;;;;;;5059173;28;20028;-75
2021/05/16 07:51:17;;;;;;;9.10;6.93;;;12.40;92.90;;;;;;5062312;28;20040;-75
2021/05/16 07:53:44;;;;;;;9.40;7.00;;;12.40;92.90;;;;;;5056437;28;20082;-75
2021/05/16 07:56:10;;;;;;;8.60;6.68;;;12.40;92.30;;;;;;5024707;28;20032;-76
2021/05/16 07:58:36;;;;;;;8.38;6.47;;;12.50;92.60;;;;;;5046728;28;20055;-75
2021/05/16 08:01:03;;;;;;;9.48;7.15;;;12.50;92.70;;;;;;5058327;28;20025;-74
2021/05/16 08:03:29;;;;;;;8.48;7.57;;;12.60;92.70;;;;;;5059084;28;20020;-76
2021/05/16 08:05:55;;;;;;;7.85;7.00;;;12.70;92.40;;;;;;5062248;28;20040;-75
2021/05/16 08:08:21;;;;;;;10.38;6.68;;;12.80;92.20;;;;;;5048201;28;20036;-75
2021/05/16 08:10:47;;;;;;;7.82;6.40;;;12.80;92.10;;;;;;5062674;28;20021;-72
2021/05/16 08:13:13;;;;;;;10.30;7.60;;;12.90;90.70;;;;;;5079337;28;20066;-74
2021/05/16 08:15:39;;;;;;;8.68;6.57;;;13.00;88.00;;;;;;5072675;28;20470;-74
2021/05/16 08:18:06;;;;;;;9.05;6.88;;;13.10;90.00;;;;;;5071023;28;20032;-74
2021/05/16 08:20:32;;;;;;;7.45;5.80;;;13.10;89.80;;;;;;5070429;28;20463;-74
2021/05/16 08:22:58;;;;;;;7.95;7.15;;;13.10;90.30;;;;;;5054705;28;20029;-75
2021/05/16 08:25:25;;;;;;;9.50;7.97;;;13.20;90.10;;;;;;5075359;28;20036;-73
2021/05/16 08:27:51;;;;;;;8.27;6.43;;;13.30;87.60;;;;;;5066290;28;20068;-74
2021/05/16 08:30:18;;;;;;;9.15;7.00;;;13.40;89.00;;;;;;5070679;28;20031;-74
2021/05/16 08:32:44;;;;;;;10.27;8.07;;;13.40;89.90;;;;;;5054438;28;20029;-73
2021/05/16 08:35:11;;;;;;;10.65;7.35;;;13.40;87.20;;;;;;5070015;28;20033;-75
2021/05/16 08:37:37;;;;;;;9.05;6.80;;;13.40;88.40;;;;;;5071396;28;20029;-76
2021/05/16 08:40:06;;;;;;;7.70;6.30;;;13.30;89.90;;;;;;5068378;28;20134;-75
2021/05/16 08:42:32;;;;;;;7.70;6.90;;;13.30;90.00;;;;;;5065146;28;20499;-75
2021/05/16 08:44:59;;;;;;;11.48;9.23;;;13.40;90.60;;;;;;5062105;28;20039;-77
2021/05/16 08:47:25;;;;;;;9.35;7.97;;;13.60;86.00;;;;;;5081035;28;20035;-75
2021/05/16 08:49:51;;;;;;;7.97;5.95;;;13.60;87.10;;;;;;5078918;28;20295;-77
2021/05/16 08:52:17;;;;;;;12.32;10.00;;;13.60;88.70;;;;;;5071361;28;20765;-75
2021/05/16 08:54:45;;;;;;;11.65;8.43;;;13.60;85.90;;;;;;5074756;28;20028;-76
2021/05/16 08:57:11;;;;;;;11.00;9.25;;;13.70;86.30;;;;;;5072357;28;20077;-77
2021/05/16 09:00:26;;;;;;;8.23;7.35;;;13.80;84.40;;;;;;5051111;28;20099;-76
2021/05/16 09:03:01;;;;;;;8.90;6.95;;;13.70;86.50;;;;;;5057243;28;20381;-77
2021/05/16 09:05:29;;;;;;;8.55;6.18;;;13.70;88.30;;;;;;5072901;28;20024;-75
2021/05/16 09:08:09;;;;;;;9.18;6.30;;;13.60;88.70;;;;;;5072778;28;20036;-77
2021/05/16 09:10:36;;;;;;;8.82;6.00;;;13.50;88.20;;;;;;5074275;28;20390;-77
2021/05/16 09:13:11;;;;;;;8.70;7.00;;;13.50;88.90;;;;;;5045706;28;20110;-76
2021/05/16 09:15:37;;;;;;;11.25;6.78;;;13.40;88.90;;;;;;5064996;28;20020;-76
2021/05/16 09:18:03;;;;;;;10.27;7.22;;;13.40;86.20;;;;;;5052271;28;20035;-76
2021/05/16 09:20:28;;;;;;;15.18;8.80;;;13.30;87.00;;;;;;5058382;28;20052;-76
2021/05/16 09:22:54;;;;;;;15.40;9.18;;;13.20;88.30;;;;;;5070553;28;20411;-75
2021/05/16 09:25:26;;;;;;;14.18;8.13;;;13.20;88.90;;;;;;5060977;28;20028;-74
2021/05/16 09:27:55;;;;;;;12.13;7.43;;;13.00;90.00;;;;;;5061696;28;20029;-74
2021/05/16 09:30:25;;;;;;;8.77;6.72;;;13.00;90.20;;;;;;5062285;28;20466;-73
2021/05/16 09:32:55;;;;;;;6.82;5.70;;;12.90;90.20;;;;;;5062902;28;20025;-77
2021/05/16 09:35:39;;;;;;;8.35;5.57;;;12.90;90.50;;;;;;5060296;28;20064;-75
2021/05/16 09:38:10;;;;;;;5.53;4.90;;;13.00;90.70;;;;;;5060895;28;20115;-76
2021/05/16 09:40:55;;;;;;;11.20;7.65;;;13.10;91.00;;;;;;5070278;28;20025;-75
2021/05/16 09:43:26;;;;;;;9.25;6.68;;;13.30;90.00;;;;;;5066413;28;20033;-71
2021/05/16 09:46:02;;;;;;;9.48;6.22;;;13.50;90.30;;;;;;5060036;28;20086;-74
2021/05/16 09:48:38;;;;;;;10.80;6.55;;;13.60;90.50;;;;;;5062940;28;20043;-75
2021/05/16 09:51:16;;;;;;;9.75;6.10;;;13.80;90.60;;;;;;5059723;28;20098;-75
2021/05/16 09:53:54;;;;;;;7.28;6.03;;;14.00;90.40;;;;;;5065486;28;20024;-68
2021/05/16 09:56:27;;;;;;;12.75;6.53;;;14.20;89.20;;;;;;5058876;28;20102;-71
2021/05/16 09:58:58;;;;;;;8.55;5.78;;;14.30;89.50;;;;;;5062324;28;20408;-72
2021/05/16 10:01:26;;;;;;;10.05;7.28;;;14.40;88.60;;;;;;5059521;28;20031;-71
2021/05/16 10:03:52;;;;;;;10.63;6.53;;;14.60;85.40;;;;;;5061839;28;20041;-75
2021/05/16 10:06:19;;;;;;;10.98;6.93;;;14.70;85.10;;;;;;5054303;28;20028;-71
2021/05/16 10:08:48;;;;;;;11.45;5.60;;;14.80;85.40;;;;;;5059613;28;20102;-71
2021/05/16 10:11:16;;;;;;;9.48;6.78;;;14.80;86.50;;;;;;5065111;28;20098;-71
2021/05/16 10:13:47;;;;;;;9.60;6.60;;;14.80;85.20;;;;;;5067023;28;20127;-71
2021/05/16 10:16:16;;;;;;;14.23;7.78;;;14.70;85.60;;;;;;5066654;28;20023;-70
2021/05/16 10:18:45;;;;;;;9.57;6.30;;;14.60;85.80;;;;;;5068306;28;20042;-72
2021/05/16 10:21:11;;;;;;;8.82;6.43;;;14.60;86.10;;;;;;5061007;28;20033;-70
2021/05/16 10:23:38;;;;;;;8.15;6.38;;;14.60;87.10;;;;;;5042635;28;20032;-69
2021/05/16 10:26:20;;;;;;;9.13;6.00;;;14.80;87.40;;;;;;5043794;28;20493;-70
2021/05/16 10:28:55;;;;;;;10.18;6.30;;;15.00;87.40;;;;;;5034729;28;20158;-69
2021/05/16 10:31:49;;;;;;;10.57;6.05;;;15.20;85.20;;;;;;5058889;28;20033;-70
2021/05/16 10:34:32;;;;;;;9.20;5.13;;;15.30;83.60;;;;;;5068559;28;20047;-71
2021/05/16 10:37:03;;;;;;;9.52;5.25;;;15.50;82.90;;;;;;5054535;28;20039;-70
2021/05/16 10:39:44;;;;;;;10.80;6.15;;;15.50;83.10;;;;;;5051185;28;20036;-72
2021/05/16 10:42:24;;;;;;;13.25;5.57;;;15.60;80.50;;;;;;5065439;28;20039;-75
2021/05/16 10:45:00;;;;;;;9.68;5.68;;;15.70;77.80;;;;;;5058853;28;20103;-75
2021/05/16 10:47:45;;;;;;;11.27;5.10;;;15.40;78.60;;;;;;5063789;28;20029;-74
2021/05/16 10:50:25;;;;;;;146.80;14.45;;;15.20;80.30;;;;;;5062900;28;20062;-74
2021/05/16 10:52:59;;;;;;;18.30;8.25;;;14.80;92.10;;;;;;5060468;28;20061;-74
2021/05/16 10:55:33;;;;;;;22.83;9.13;;;13.80;93.90;;;;;;5061895;28;20163;-73
2021/05/16 10:58:01;;;;;;;38.22;15.50;;;13.30;95.60;;;;;;5061920;28;20039;-74
2021/05/16 11:00:39;;;;;;;34.10;18.55;;;12.80;96.60;;;;;;5057521;28;20028;-73
2021/05/16 11:03:06;;;;;;;50.53;28.98;;;12.60;97.20;;;;;;5059527;28;20078;-73
2021/05/16 11:05:48;;;;;;;35.65;17.55;;;12.40;97.70;;;;;;5062905;28;20033;-74
2021/05/16 11:08:17;;;;;;;21.50;11.32;;;12.30;97.90;;;;;;5048664;28;20029;-74
2021/05/16 11:10:48;;;;;;;15.60;8.63;;;12.20;98.20;;;;;;5065475;28;20108;-73
2021/05/16 11:13:23;;;;;;;16.05;7.15;;;12.10;98.50;;;;;;5049742;28;20023;-72
2021/05/16 11:15:52;;;;;;;11.32;7.18;;;12.10;98.70;;;;;;5063072;28;20036;-76
2021/05/16 11:18:22;;;;;;;14.77;7.25;;;12.10;98.90;;;;;;5040945;28;20139;-75
2021/05/16 11:20:53;;;;;;;15.75;7.35;;;12.10;99.00;;;;;;5032092;28;20036;-75
2021/05/16 11:23:23;;;;;;;15.25;8.13;;;12.10;99.30;;;;;;5042497;28;20058;-76
2021/05/16 11:25:58;;;;;;;15.90;8.60;;;12.20;99.40;;;;;;5051366;28;20033;-76
2021/05/16 11:28:27;;;;;;;14.15;8.68;;;12.20;99.50;;;;;;5041356;28;20038;-74
2021/05/16 11:30:55;;;;;;;19.50;9.50;;;12.40;99.80;;;;;;5054513;28;20115;-75
2021/05/16 11:33:35;;;;;;;15.77;9.75;;;12.60;99.90;;;;;;5059813;28;20027;-75
2021/05/16 11:36:09;;;;;;;16.60;10.13;;;12.90;99.90;;;;;;5046019;28;20115;-76
2021/05/16 11:38:38;;;;;;;12.27;8.30;;;13.60;99.90;;;;;;5050290;28;20033;-75
2021/05/16 11:41:04;;;;;;;27.17;9.98;;;14.20;99.90;;;;;;5049106;28;20036;-77
2021/05/16 11:43:35;;;;;;;34.92;9.07;;;15.20;99.90;;;;;;5048648;28;20055;-74
2021/05/16 11:46:02;;;;;;;8.20;6.25;;;16.00;99.90;;;;;;5054837;28;20040;-74
2021/05/16 11:48:36;;;;;;;11.43;6.68;;;16.60;99.90;;;;;;5059182;28;20437;-75
2021/05/16 11:51:17;;;;;;;11.70;6.13;;;16.70;99.90;;;;;;5062963;28;20021;-75
2021/05/16 11:53:57;;;;;;;13.67;6.73;;;16.60;99.00;;;;;;5056054;28;20097;-74
2021/05/16 11:56:35;;;;;;;7.97;5.97;;;16.30;99.20;;;;;;5063449;28;20039;-71
2021/05/16 11:59:02;;;;;;;13.30;6.18;;;16.30;99.60;;;;;;5051073;28;20071;-74
2021/05/16 12:01:32;;;;;;;23.63;7.10;;;16.30;99.90;;;;;;5055605;28;20029;-74
2021/05/16 12:04:00;;;;;;;5.03;4.50;;;16.70;99.90;;;;;;5054132;28;20108;-76
2021/05/16 12:06:28;;;;;;;8.50;6.07;;;17.10;99.90;;;;;;5058169;28;20708;-75
2021/05/16 12:09:06;;;;;;;7.90;4.50;;;17.00;97.60;;;;;;5059481;28;20032;-76
2021/05/16 12:11:33;;;;;;;4.43;2.78;;;16.60;98.30;;;;;;5055033;28;20478;-76
2021/05/16 12:14:14;;;;;;;6.25;3.15;;;16.10;98.10;;;;;;5056073;28;20036;-76
2021/05/16 12:17:00;;;;;;;5.93;3.00;;;16.00;99.70;;;;;;5042614;28;20029;-75
2021/05/16 12:19:31;;;;;;;3.40;2.03;;;16.50;99.90;;;;;;5062192;28;20064;-75
2021/05/16 12:21:58;;;;;;;;;;;16.70;99.20;;;;;;5055652;28;20480;-75
2021/05/16 12:24:28;;;;;;;2.72;1.67;;;16.80;99.60;;;;;;5053576;28;19953;-75
2021/05/16 12:26:54;;;;;;;3.90;1.85;;;16.90;99.80;;;;;;5053124;28;20033;-74
2021/05/16 12:29:21;;;;;;;3.70;2.30;;;16.90;98.30;;;;;;5055863;28;20082;-74
2021/05/16 12:31:48;;;;;;;3.55;2.13;;;16.60;97.30;;;;;;5060458;28;20032;-76
2021/05/16 12:34:17;;;;;;;3.65;2.30;;;16.20;97.80;;;;;;5064786;28;20514;-74
2021/05/16 12:36:53;;;;;;;3.67;2.70;;;15.80;98.10;;;;;;5056644;28;20420;-74
2021/05/16 12:39:45;;;;;;;5.57;3.30;;;15.60;98.90;;;;;;5038028;28;20040;-71
2021/05/16 12:42:38;;;;;;;8.23;3.90;;;15.70;99.80;;;;;;5062420;28;20038;-72
2021/05/16 12:45:22;;;;;;;7.50;4.47;;;16.30;99.90;;;;;;5063662;28;20124;-70
2021/05/16 12:48:15;;;;;;;5.07;3.33;;;16.70;99.90;;;;;;5056258;28;20568;-73
2021/05/16 12:50:49;;;;;;;7.05;4.90;;;16.60;99.10;;;;;;5059430;28;20036;-73